createdAt,value
2017-03-26T00:00:07.525Z,11.24
2017-03-26T00:01:17.590Z,11.27
2017-03-26T00:02:27.920Z,11.2
2017-03-26T00:03:37.997Z,11.26
2017-03-26T00:04:47.718Z,11.23
2017-03-26T00:05:58.105Z,11.31
2017-03-26T00:07:08.203Z,11.23
2017-03-26T00:08:18.565Z,11.28
2017-03-26T00:09:28.294Z,11.27
2017-03-26T00:10:38.630Z,11.23
2017-03-26T00:11:48.658Z,11.3
2017-03-26T00:12:58.678Z,11.3
2017-03-26T00:14:09.032Z,11.24
2017-03-26T00:15:19.360Z,11.18
2017-03-26T00:16:28.762Z,11.2
2017-03-26T00:17:39.110Z,11.18
2017-03-26T00:18:49.447Z,11.21
2017-03-26T00:19:59.784Z,11.18
2017-03-26T00:21:10.183Z,11.24
2017-03-26T00:22:20.551Z,11.16
2017-03-26T00:23:30.899Z,11.24
2017-03-26T00:24:41.245Z,11.18
2017-03-26T00:25:51.582Z,11.12
2017-03-26T00:27:01.358Z,11.1
2017-03-26T00:28:11.399Z,11.2
2017-03-26T00:29:21.762Z,11.15
2017-03-26T00:30:32.106Z,11.18
2017-03-26T00:31:42.484Z,11.18
2017-03-26T00:32:52.562Z,11.23
2017-03-26T00:34:02.925Z,11.13
2017-03-26T00:35:13.282Z,11.15
2017-03-26T00:36:23.337Z,11.13
2017-03-26T00:37:33.359Z,11.05
2017-03-26T00:38:43.709Z,11.02
2017-03-26T00:39:54.058Z,11.03
2017-03-26T00:41:04.401Z,11.06
2017-03-26T00:42:14.748Z,11
2017-03-26T00:43:25.074Z,10.94
2017-03-26T00:44:35.407Z,11.05
2017-03-26T00:45:45.735Z,10.92
2017-03-26T00:46:56.068Z,10.97
2017-03-26T00:48:06.412Z,10.98
2017-03-26T00:49:16.755Z,11.05
2017-03-26T00:50:27.118Z,10.95
2017-03-26T00:51:37.133Z,11.03
2017-03-26T00:52:47.179Z,10.94
2017-03-26T00:53:57.199Z,11.02
2017-03-26T00:55:07.227Z,10.94
2017-03-26T00:56:17.575Z,11.03
2017-03-26T00:57:27.900Z,10.91
2017-03-26T00:58:38.246Z,10.95
2017-03-26T00:59:48.332Z,10.97
2017-03-26T01:00:58.345Z,10.97
2017-03-26T01:02:08.370Z,10.97
2017-03-26T01:03:18.455Z,10.97
2017-03-26T01:04:28.788Z,10.95
2017-03-26T01:05:39.115Z,10.91
2017-03-26T01:06:49.448Z,10.9
2017-03-26T01:07:59.789Z,10.92
2017-03-26T01:09:09.502Z,10.91
2017-03-26T01:10:19.838Z,10.84
2017-03-26T01:11:30.193Z,10.88
2017-03-26T01:12:40.535Z,10.84
2017-03-26T01:13:50.573Z,10.83
2017-03-26T01:15:00.915Z,10.91
2017-03-26T01:16:11.255Z,10.83
2017-03-26T01:17:21.648Z,10.87
2017-03-26T01:18:31.994Z,10.91
2017-03-26T01:19:42.331Z,10.9
2017-03-26T01:20:52.363Z,10.85
2017-03-26T01:22:02.404Z,10.77
2017-03-26T01:23:11.861Z,10.75
2017-03-26T01:24:22.209Z,10.85
2017-03-26T01:25:32.543Z,10.75
2017-03-26T01:26:42.885Z,10.75
2017-03-26T01:27:52.923Z,10.77
2017-03-26T01:29:02.962Z,10.72
2017-03-26T01:30:13.313Z,10.69
2017-03-26T01:31:23.332Z,10.65
2017-03-26T01:32:33.359Z,10.73
2017-03-26T01:33:43.700Z,10.73
2017-03-26T01:34:53.740Z,10.69
2017-03-26T01:36:04.082Z,10.63
2017-03-26T01:37:14.097Z,10.72
2017-03-26T01:38:24.420Z,10.69
2017-03-26T01:39:34.444Z,10.67
2017-03-26T01:40:44.790Z,10.65
2017-03-26T01:41:55.139Z,10.67
2017-03-26T01:43:05.473Z,10.63
2017-03-26T01:44:15.801Z,10.51
2017-03-26T01:45:26.159Z,10.54
2017-03-26T01:46:36.500Z,10.51
2017-03-26T01:47:46.837Z,10.52
2017-03-26T01:48:56.880Z,10.55
2017-03-26T01:50:07.211Z,10.41
2017-03-26T01:51:17.561Z,10.41
2017-03-26T01:52:27.260Z,10.36
2017-03-26T01:53:37.620Z,10.29
2017-03-26T01:54:47.661Z,10.33
2017-03-26T01:55:57.975Z,10.31
2017-03-26T01:57:08.301Z,10.35
2017-03-26T01:58:18.367Z,10.35
2017-03-26T01:59:28.754Z,10.33
2017-03-26T02:00:38.801Z,10.36
2017-03-26T02:01:48.508Z,10.39
2017-03-26T02:02:58.858Z,10.33
2017-03-26T02:04:08.883Z,10.44
2017-03-26T02:05:19.224Z,10.35
2017-03-26T02:06:29.258Z,10.39
2017-03-26T02:07:39.743Z,10.39
2017-03-26T02:08:50.086Z,10.35
2017-03-26T02:10:00.106Z,10.38
2017-03-26T02:11:10.201Z,10.21
2017-03-26T02:12:20.228Z,10.28
2017-03-26T02:13:30.575Z,10.25
2017-03-26T02:14:40.915Z,10.28
2017-03-26T02:15:51.286Z,10.23
2017-03-26T02:17:01.429Z,10.31
2017-03-26T02:18:11.137Z,10.26
2017-03-26T02:19:21.474Z,10.26
2017-03-26T02:20:31.510Z,10.18
2017-03-26T02:21:41.832Z,10.17
2017-03-26T02:22:52.169Z,10.15
2017-03-26T02:24:02.531Z,10.15
2017-03-26T02:25:12.549Z,10.14
2017-03-26T02:26:22.899Z,10.11
2017-03-26T02:27:32.915Z,10.03
2017-03-26T02:28:43.272Z,10.07
2017-03-26T02:29:53.621Z,10.1
2017-03-26T02:31:03.682Z,10.08
2017-03-26T02:32:14.024Z,10.1
2017-03-26T02:33:24.407Z,10.11
2017-03-26T02:34:34.746Z,10.08
2017-03-26T02:35:44.769Z,10.03
2017-03-26T02:36:54.785Z,10.1
2017-03-26T02:38:05.129Z,10.07
2017-03-26T02:39:15.487Z,9.96
2017-03-26T02:40:25.190Z,9.98
2017-03-26T02:41:35.532Z,10.02
2017-03-26T02:42:45.881Z,10
2017-03-26T02:43:56.226Z,9.93
2017-03-26T02:45:06.241Z,9.85
2017-03-26T02:46:16.261Z,9.88
2017-03-26T02:47:26.289Z,9.88
2017-03-26T02:48:36.816Z,9.82
2017-03-26T02:49:47.409Z,9.82
2017-03-26T02:50:57.906Z,9.85
2017-03-26T02:52:08.245Z,9.85
2017-03-26T02:53:18.273Z,9.8
2017-03-26T02:54:28.296Z,9.92
2017-03-26T02:55:38.026Z,9.88
2017-03-26T02:56:48.354Z,9.81
2017-03-26T02:57:58.699Z,9.85
2017-03-26T02:59:08.735Z,9.85
2017-03-26T03:00:19.083Z,9.81
2017-03-26T03:01:29.420Z,9.84
2017-03-26T03:32:19.065Z,6.43
2017-03-26T03:33:29.392Z,6.4
2017-03-26T03:34:39.725Z,6.4
2017-03-26T03:35:50.049Z,6.44
2017-03-26T03:36:59.755Z,6.55
2017-03-26T03:38:10.098Z,6.73
2017-03-26T03:39:20.417Z,6.83
2017-03-26T03:40:30.785Z,6.97
2017-03-26T03:41:40.799Z,7.13
2017-03-26T03:42:50.828Z,7.26
2017-03-26T03:44:01.171Z,7.34
2017-03-26T03:45:11.197Z,7.54
2017-03-26T03:46:21.210Z,7.68
2017-03-26T03:47:31.235Z,7.89
2017-03-26T03:48:41.254Z,7.91
2017-03-26T03:49:50.978Z,8.1
2017-03-26T03:51:00.683Z,8.21
2017-03-26T03:52:11.033Z,8.16
2017-03-26T03:53:21.367Z,8.31
2017-03-26T03:54:31.725Z,8.39
2017-03-26T03:55:41.751Z,8.46
2017-03-26T03:56:51.769Z,8.54
2017-03-26T03:58:02.106Z,8.65
2017-03-26T03:59:12.466Z,8.64
2017-03-26T04:00:22.491Z,8.72
2017-03-26T04:01:32.873Z,8.68
2017-03-26T04:02:43.218Z,8.71
2017-03-26T04:03:53.567Z,8.83
2017-03-26T04:05:03.606Z,8.83
2017-03-26T04:06:13.942Z,8.8
2017-03-26T04:07:24.003Z,8.82
2017-03-26T04:08:34.455Z,8.82
2017-03-26T04:09:44.497Z,8.79
2017-03-26T04:10:54.546Z,8.67
2017-03-26T04:12:04.874Z,8.85
2017-03-26T04:13:15.210Z,8.83
2017-03-26T04:14:25.240Z,8.79
2017-03-26T04:15:35.574Z,8.83
2017-03-26T04:16:45.913Z,8.79
2017-03-26T04:17:56.277Z,8.74
2017-03-26T04:19:06.036Z,8.85
2017-03-26T04:20:16.376Z,8.72
2017-03-26T04:21:26.758Z,8.67
2017-03-26T04:22:36.784Z,8.68
2017-03-26T04:23:47.131Z,8.62
2017-03-26T04:24:57.217Z,8.61
2017-03-26T04:26:07.565Z,8.57
2017-03-26T04:27:17.886Z,8.6
2017-03-26T04:28:28.221Z,8.49
2017-03-26T04:29:38.633Z,8.5
2017-03-26T04:30:49.031Z,8.53
2017-03-26T04:31:59.357Z,8.43
2017-03-26T04:33:09.680Z,8.44
2017-03-26T04:34:19.391Z,8.42
2017-03-26T04:35:29.734Z,8.42
2017-03-26T04:36:40.110Z,8.34
2017-03-26T04:37:50.688Z,8.39
2017-03-26T04:39:00.438Z,8.49
2017-03-26T04:40:10.479Z,8.36
2017-03-26T04:41:20.877Z,8.29
2017-03-26T04:42:31.238Z,8.34
2017-03-26T04:43:41.597Z,8.34
2017-03-26T04:44:51.001Z,8.35
2017-03-26T04:46:01.035Z,8.42
2017-03-26T04:47:11.372Z,8.25
2017-03-26T04:48:21.720Z,8.39
2017-03-26T04:49:32.074Z,8.44
2017-03-26T04:50:42.416Z,8.4
2017-03-26T04:51:52.433Z,8.46
2017-03-26T04:53:02.771Z,8.47
2017-03-26T04:54:13.101Z,8.42
2017-03-26T04:55:23.461Z,8.39
2017-03-26T04:56:33.778Z,8.35
2017-03-26T04:57:44.106Z,8.43
2017-03-26T04:58:54.433Z,8.47
2017-03-26T05:00:04.760Z,8.44
2017-03-26T05:01:15.135Z,8.44
2017-03-26T05:02:25.502Z,8.5
2017-03-26T05:03:35.519Z,8.54
2017-03-26T05:04:45.852Z,8.68
2017-03-26T05:05:56.181Z,8.85
2017-03-26T05:07:05.879Z,8.9
2017-03-26T05:08:16.216Z,8.89
2017-03-26T05:09:26.260Z,8.92
2017-03-26T05:10:36.601Z,8.97
2017-03-26T05:11:46.646Z,9.09
2017-03-26T05:12:56.977Z,9.03
2017-03-26T05:14:07.014Z,9.12
2017-03-26T05:15:17.347Z,9.17
2017-03-26T05:16:27.696Z,9.21
2017-03-26T05:17:38.047Z,9.16
2017-03-26T05:18:48.375Z,9.24
2017-03-26T05:19:58.717Z,9.3
2017-03-26T05:21:09.064Z,9.16
2017-03-26T05:22:18.772Z,9.23
2017-03-26T05:23:28.478Z,9.27
2017-03-26T05:24:38.839Z,9.16
2017-03-26T05:25:49.160Z,9.17
2017-03-26T05:26:59.197Z,9.14
2017-03-26T05:28:09.101Z,9.14
2017-03-26T05:29:19.140Z,9.17
2017-03-26T05:30:29.490Z,9.17
2017-03-26T05:31:39.829Z,9.17
2017-03-26T05:32:50.164Z,9.09
2017-03-26T05:34:00.513Z,9.26
2017-03-26T05:35:10.842Z,9.23
2017-03-26T05:36:21.173Z,9.27
2017-03-26T05:37:31.517Z,9.24
2017-03-26T05:38:41.867Z,9.42
2017-03-26T05:39:52.212Z,9.5
2017-03-26T05:41:02.250Z,9.62
2017-03-26T05:42:12.595Z,9.67
2017-03-26T05:43:22.936Z,9.6
2017-03-26T05:44:33.274Z,9.72
2017-03-26T05:45:43.315Z,9.71
2017-03-26T05:46:53.639Z,9.85
2017-03-26T05:48:04.003Z,9.98
2017-03-26T05:49:14.357Z,10.05
2017-03-26T05:50:24.693Z,10.21
2017-03-26T05:51:35.018Z,10.31
2017-03-26T05:52:45.358Z,10.23
2017-03-26T05:53:55.694Z,10.23
2017-03-26T05:55:06.031Z,10.26
2017-03-26T05:56:16.363Z,10.29
2017-03-26T05:57:26.753Z,10.28
2017-03-26T05:58:37.086Z,10.25
2017-03-26T05:59:47.137Z,10.21
2017-03-26T06:00:57.179Z,10.11
2017-03-26T06:02:07.537Z,10.13
2017-03-26T06:03:17.568Z,10.08
2017-03-26T06:04:27.914Z,9.96
2017-03-26T06:05:38.279Z,10.03
2017-03-26T06:06:48.627Z,9.98
2017-03-26T06:07:59.380Z,9.96
2017-03-26T06:09:09.919Z,10.14
2017-03-26T06:10:20.262Z,10.23
2017-03-26T06:11:30.603Z,10.32
2017-03-26T06:12:40.937Z,10.38
2017-03-26T06:13:51.293Z,10.33
2017-03-26T06:15:01.024Z,10.38
2017-03-26T06:16:11.043Z,10.38
2017-03-26T06:17:21.376Z,10.39
2017-03-26T06:18:32.190Z,10.31
2017-03-26T06:19:42.532Z,10.42
2017-03-26T06:20:52.249Z,10.39
2017-03-26T06:22:02.588Z,10.49
2017-03-26T06:23:12.594Z,10.51
2017-03-26T06:24:22.943Z,10.55
2017-03-26T06:25:32.979Z,10.46
2017-03-26T06:26:42.999Z,10.54
2017-03-26T06:27:53.337Z,10.66
2017-03-26T06:29:03.674Z,10.67
2017-03-26T06:30:13.406Z,10.67
2017-03-26T06:31:23.435Z,10.69
2017-03-26T06:32:33.777Z,10.8
2017-03-26T06:33:44.117Z,10.76
2017-03-26T06:34:54.455Z,10.85
2017-03-26T06:36:04.476Z,10.91
2017-03-26T06:37:14.831Z,10.85
2017-03-26T06:38:25.167Z,10.85
2017-03-26T06:39:35.180Z,10.8
2017-03-26T06:40:45.211Z,10.85
2017-03-26T06:41:55.558Z,10.92
2017-03-26T06:43:05.890Z,10.91
2017-03-26T06:44:15.306Z,10.88
2017-03-26T06:45:25.648Z,10.83
2017-03-26T06:46:35.990Z,10.9
2017-03-26T06:47:46.342Z,10.92
2017-03-26T06:48:56.680Z,11.03
2017-03-26T06:50:07.011Z,11.05
2017-03-26T06:51:17.362Z,11.03
2017-03-26T06:52:27.712Z,11.05
2017-03-26T06:53:38.075Z,11.03
2017-03-26T06:54:48.415Z,11.18
2017-03-26T06:55:58.433Z,11.06
2017-03-26T06:57:08.765Z,11.12
2017-03-26T06:58:19.099Z,11.15
2017-03-26T06:59:29.129Z,11.2
2017-03-26T07:00:38.855Z,11.16
2017-03-26T07:01:49.192Z,11.16
2017-03-26T07:02:59.514Z,11.26
2017-03-26T07:04:09.533Z,11.23
2017-03-26T07:05:19.577Z,11.24
2017-03-26T07:06:29.914Z,11.38
2017-03-26T07:07:39.947Z,11.39
2017-03-26T07:08:50.288Z,11.43
2017-03-26T07:10:00.005Z,11.34
2017-03-26T07:11:10.354Z,11.35
2017-03-26T07:12:20.388Z,11.35
2017-03-26T07:13:30.734Z,11.38
2017-03-26T07:14:41.096Z,11.39
2017-03-26T07:15:51.452Z,11.34
2017-03-26T07:17:01.455Z,11.31
2017-03-26T07:18:11.808Z,11.35
2017-03-26T07:19:22.148Z,11.35
2017-03-26T07:20:32.511Z,11.41
2017-03-26T07:21:42.853Z,11.45
2017-03-26T07:22:53.253Z,11.52
2017-03-26T07:24:03.311Z,11.53
2017-03-26T07:25:13.657Z,11.6
2017-03-26T07:26:23.737Z,11.63
2017-03-26T07:27:33.769Z,11.73
2017-03-26T07:28:44.102Z,11.79
2017-03-26T07:29:54.459Z,11.89
2017-03-26T07:31:04.825Z,11.94
2017-03-26T07:32:15.164Z,12.04
2017-03-26T07:33:25.491Z,12.04
2017-03-26T07:34:35.850Z,12.05
2017-03-26T07:35:45.886Z,12.08
2017-03-26T07:36:55.599Z,12.18
2017-03-26T07:38:05.959Z,12.22
2017-03-26T07:39:16.311Z,12.2
2017-03-26T07:40:26.634Z,12.33
2017-03-26T07:41:36.971Z,12.31
2017-03-26T07:42:47.319Z,12.28
2017-03-26T07:43:57.697Z,12.36
2017-03-26T07:45:08.041Z,12.38
2017-03-26T07:46:17.758Z,12.38
2017-03-26T07:47:27.793Z,12.47
2017-03-26T07:48:37.817Z,12.45
2017-03-26T07:49:48.160Z,12.48
2017-03-26T07:50:58.499Z,12.41
2017-03-26T07:52:08.822Z,12.37
2017-03-26T07:53:19.203Z,12.38
2017-03-26T07:54:29.565Z,12.41
2017-03-26T07:55:39.916Z,12.51
2017-03-26T07:56:50.260Z,12.52
2017-03-26T07:58:00.619Z,12.59
2017-03-26T07:59:10.651Z,12.56
2017-03-26T08:00:20.687Z,12.58
2017-03-26T08:01:30.718Z,12.59
2017-03-26T08:02:41.065Z,12.73
2017-03-26T08:03:51.393Z,12.76
2017-03-26T08:05:01.751Z,12.77
2017-03-26T08:06:12.106Z,12.8
2017-03-26T08:07:22.213Z,12.8
2017-03-26T08:08:32.556Z,12.88
2017-03-26T08:09:42.943Z,12.84
2017-03-26T08:10:53.310Z,12.91
2017-03-26T08:12:03.699Z,12.98
2017-03-26T08:13:14.042Z,12.98
2017-03-26T08:14:24.374Z,13.14
2017-03-26T08:15:34.396Z,13.16
2017-03-26T08:16:44.738Z,13.19
2017-03-26T08:17:55.084Z,13.14
2017-03-26T08:19:05.429Z,13.14
2017-03-26T08:20:15.761Z,13.17
2017-03-26T08:21:26.090Z,13.11
2017-03-26T08:22:36.114Z,13.17
2017-03-26T08:23:46.160Z,13.17
2017-03-26T08:24:56.524Z,13.2
2017-03-26T08:26:06.855Z,13.21
2017-03-26T08:27:16.876Z,13.37
2017-03-26T08:28:26.916Z,13.35
2017-03-26T08:29:37.284Z,13.36
2017-03-26T08:30:47.614Z,13.44
2017-03-26T08:31:57.648Z,13.53
2017-03-26T08:33:07.973Z,13.58
2017-03-26T08:34:18.325Z,13.55
2017-03-26T08:35:28.672Z,13.58
2017-03-26T08:36:38.718Z,13.66
2017-03-26T08:37:48.758Z,13.72
2017-03-26T08:38:59.109Z,13.84
2017-03-26T08:40:09.445Z,13.84
2017-03-26T08:41:19.783Z,13.81
2017-03-26T08:42:30.129Z,13.81
2017-03-26T08:43:40.470Z,13.81
2017-03-26T08:44:50.499Z,13.88
2017-03-26T08:46:00.841Z,13.93
2017-03-26T08:47:10.861Z,13.97
2017-03-26T08:48:20.909Z,14.08
2017-03-26T08:49:31.245Z,14.06
2017-03-26T08:50:41.588Z,14.16
2017-03-26T08:51:51.931Z,14.19
2017-03-26T08:53:02.286Z,14.15
2017-03-26T08:54:12.647Z,14.09
2017-03-26T08:55:22.673Z,14.11
2017-03-26T08:56:33.086Z,14.06
2017-03-26T08:57:43.441Z,14.08
2017-03-26T08:58:53.469Z,13.99
2017-03-26T09:00:03.832Z,13.94
2017-03-26T09:01:13.868Z,14.01
2017-03-26T09:02:24.208Z,14.09
2017-03-26T09:03:34.251Z,14.16
2017-03-26T09:04:44.600Z,14.28
2017-03-26T09:05:54.939Z,14.33
2017-03-26T09:07:04.987Z,14.42
2017-03-26T09:08:15.322Z,14.46
2017-03-26T09:09:25.674Z,14.48
2017-03-26T09:10:36.018Z,14.49
2017-03-26T09:11:46.373Z,14.46
2017-03-26T09:12:56.415Z,14.52
2017-03-26T09:14:06.771Z,14.46
2017-03-26T09:15:17.141Z,14.45
2017-03-26T09:16:27.495Z,14.51
2017-03-26T09:17:37.842Z,14.46
2017-03-26T09:18:47.873Z,14.45
2017-03-26T09:19:58.219Z,14.53
2017-03-26T09:21:08.244Z,14.7
2017-03-26T09:22:18.582Z,14.67
2017-03-26T09:23:28.968Z,14.82
2017-03-26T09:24:38.746Z,14.85
2017-03-26T09:25:48.787Z,14.89
2017-03-26T09:26:59.132Z,14.98
2017-03-26T09:28:09.191Z,15.08
2017-03-26T09:29:19.209Z,15.04
2017-03-26T09:30:29.251Z,15.1
2017-03-26T09:31:39.572Z,15.13
2017-03-26T09:32:49.906Z,15.16
2017-03-26T09:34:00.242Z,15.26
2017-03-26T09:35:09.958Z,15.31
2017-03-26T09:36:20.308Z,15.3
2017-03-26T09:37:30.657Z,15.38
2017-03-26T09:38:40.747Z,15.33
2017-03-26T09:39:50.790Z,15.34
2017-03-26T09:41:01.130Z,15.31
2017-03-26T09:42:11.164Z,15.43
2017-03-26T09:43:21.187Z,15.38
2017-03-26T09:44:31.220Z,15.4
2017-03-26T09:45:41.331Z,15.44
2017-03-26T09:46:51.671Z,15.52
2017-03-26T09:48:02.032Z,15.62
2017-03-26T09:49:12.409Z,15.6
2017-03-26T09:50:22.751Z,15.63
2017-03-26T09:51:33.100Z,15.68
2017-03-26T09:52:43.446Z,15.8
2017-03-26T09:53:53.801Z,15.88
2017-03-26T09:55:03.864Z,15.88
2017-03-26T09:56:13.917Z,15.88
2017-03-26T09:57:24.289Z,15.86
2017-03-26T09:58:34.682Z,15.96
2017-03-26T09:59:44.732Z,15.98
2017-03-26T10:00:54.745Z,15.96
2017-03-26T10:02:05.082Z,15.98
2017-03-26T10:03:15.428Z,15.95
2017-03-26T10:04:25.786Z,15.98
2017-03-26T10:05:35.803Z,15.95
2017-03-26T10:06:46.150Z,15.98
2017-03-26T10:07:56.193Z,15.88
2017-03-26T10:09:06.534Z,15.96
2017-03-26T10:10:16.888Z,16.06
2017-03-26T10:11:26.929Z,16.06
2017-03-26T10:12:37.272Z,16.11
2017-03-26T10:13:47.635Z,16.13
2017-03-26T10:14:57.976Z,16.16
2017-03-26T10:16:08.012Z,16.08
2017-03-26T10:17:18.045Z,16.18
2017-03-26T10:18:28.400Z,16.11
2017-03-26T10:19:38.128Z,16.14
2017-03-26T10:20:48.471Z,16.27
2017-03-26T10:21:58.823Z,16.37
2017-03-26T10:23:08.847Z,16.33
2017-03-26T10:24:19.220Z,16.48
2017-03-26T10:25:28.951Z,16.37
2017-03-26T10:26:39.356Z,16.48
2017-03-26T10:27:49.722Z,16.55
2017-03-26T10:29:00.083Z,16.48
2017-03-26T10:30:10.436Z,16.55
2017-03-26T10:31:20.454Z,16.63
2017-03-26T10:32:30.787Z,16.65
2017-03-26T10:33:41.138Z,16.65
2017-03-26T10:34:51.503Z,16.74
2017-03-26T10:36:01.856Z,16.8
2017-03-26T10:37:12.212Z,16.84
2017-03-26T10:38:21.921Z,16.81
2017-03-26T10:39:31.962Z,16.73
2017-03-26T10:40:41.998Z,16.76
2017-03-26T10:41:52.370Z,16.77
2017-03-26T10:43:02.714Z,16.8
2017-03-26T10:44:13.059Z,16.8
2017-03-26T10:45:23.432Z,16.76
2017-03-26T10:46:33.797Z,16.91
2017-03-26T10:47:43.835Z,16.85
2017-03-26T10:48:54.174Z,16.9
2017-03-26T10:50:04.197Z,17
2017-03-26T10:51:14.233Z,16.97
2017-03-26T10:52:23.953Z,17.05
2017-03-26T10:53:34.299Z,17.09
2017-03-26T10:54:44.338Z,17.07
2017-03-26T10:55:54.385Z,17.21
2017-03-26T10:57:04.419Z,17.27
2017-03-26T10:58:14.772Z,17.35
2017-03-26T10:59:25.142Z,17.3
2017-03-26T11:00:35.493Z,17.36
2017-03-26T11:01:45.222Z,17.36
2017-03-26T11:02:55.567Z,17.43
2017-03-26T11:04:05.603Z,17.4
2017-03-26T11:05:15.938Z,17.3
2017-03-26T11:06:26.280Z,17.32
2017-03-26T11:07:36.628Z,17.31
2017-03-26T11:08:46.666Z,17.28
2017-03-26T11:09:56.750Z,17.31
2017-03-26T11:11:07.099Z,17.21
2017-03-26T11:12:17.444Z,17.32
2017-03-26T11:13:27.808Z,17.31
2017-03-26T11:14:37.851Z,17.35
2017-03-26T11:15:47.880Z,17.36
2017-03-26T11:16:57.916Z,17.38
2017-03-26T11:18:07.653Z,17.38
2017-03-26T11:19:17.996Z,17.31
2017-03-26T11:20:28.350Z,17.25
2017-03-26T11:21:38.368Z,17.13
2017-03-26T11:22:48.092Z,17.21
2017-03-26T11:23:58.461Z,17.31
2017-03-26T11:25:08.815Z,17.3
2017-03-26T11:26:19.165Z,17.27
2017-03-26T11:27:29.203Z,17.21
2017-03-26T11:28:39.545Z,17.2
2017-03-26T11:29:49.892Z,17.25
2017-03-26T11:31:00.248Z,17.13
2017-03-26T11:32:10.575Z,17.15
2017-03-26T11:33:20.939Z,17.28
2017-03-26T11:34:30.987Z,17.39
2017-03-26T11:35:41.367Z,17.49
2017-03-26T11:36:51.716Z,17.49
2017-03-26T11:38:02.057Z,17.49
2017-03-26T11:39:12.454Z,17.45
2017-03-26T11:40:22.800Z,17.52
2017-03-26T11:41:32.836Z,17.54
2017-03-26T11:42:43.175Z,17.63
2017-03-26T11:43:53.531Z,17.69
2017-03-26T11:45:03.862Z,17.62
2017-03-26T11:46:13.895Z,17.71
2017-03-26T11:47:24.454Z,17.79
2017-03-26T11:48:34.803Z,17.77
2017-03-26T11:49:45.183Z,17.88
2017-03-26T11:50:55.226Z,17.84
2017-03-26T11:52:05.578Z,17.88
2017-03-26T11:53:15.915Z,17.99
2017-03-26T11:54:26.266Z,18.03
2017-03-26T11:55:36.609Z,18.08
2017-03-26T11:56:46.655Z,18.06
2017-03-26T11:57:56.699Z,18.03
2017-03-26T11:59:06.742Z,18.01
2017-03-26T12:00:17.080Z,17.99
2017-03-26T12:01:27.428Z,17.9
2017-03-26T12:02:37.784Z,17.94
2017-03-26T12:03:47.828Z,17.86
2017-03-26T12:04:58.174Z,17.95
2017-03-26T12:06:08.210Z,18.05
2017-03-26T12:07:18.594Z,18.06
2017-03-26T12:08:28.663Z,18.13
2017-03-26T12:09:38.703Z,18.26
2017-03-26T12:10:48.751Z,18.17
2017-03-26T12:11:59.094Z,18.2
2017-03-26T12:13:09.449Z,18.23
2017-03-26T12:14:19.799Z,18.21
2017-03-26T12:15:29.840Z,18.2
2017-03-26T12:16:39.870Z,18.19
2017-03-26T12:17:50.200Z,18.21
2017-03-26T12:19:00.598Z,18.17
2017-03-26T12:20:10.961Z,18.32
2017-03-26T12:21:21.298Z,18.29
2017-03-26T12:22:31.338Z,18.39
2017-03-26T12:23:41.074Z,18.44
2017-03-26T12:24:51.431Z,18.34
2017-03-26T12:26:00.849Z,18.32
2017-03-26T12:27:11.186Z,18.24
2017-03-26T12:28:21.542Z,18.32
2017-03-26T12:29:31.891Z,18.23
2017-03-26T12:30:41.602Z,18.31
2017-03-26T12:31:51.943Z,18.27
2017-03-26T12:33:02.309Z,18.24
2017-03-26T12:34:12.691Z,18.31
2017-03-26T12:35:22.398Z,18.41
2017-03-26T12:36:32.730Z,18.34
2017-03-26T12:37:43.066Z,18.42
2017-03-26T12:38:53.093Z,18.39
2017-03-26T12:40:03.484Z,18.49
2017-03-26T12:41:13.808Z,18.42
2017-03-26T12:42:24.143Z,18.38
2017-03-26T12:43:34.475Z,18.29
2017-03-26T12:44:44.840Z,18.24
2017-03-26T12:45:55.236Z,18.19
2017-03-26T12:47:05.273Z,18.29
2017-03-26T12:48:15.650Z,18.42
2017-03-26T12:49:25.996Z,18.39
2017-03-26T12:50:36.370Z,18.41
2017-03-26T12:51:46.725Z,18.39
2017-03-26T12:52:57.088Z,18.42
2017-03-26T12:54:07.442Z,18.36
2017-03-26T12:55:17.849Z,18.32
2017-03-26T12:56:27.904Z,18.31
2017-03-26T12:57:37.627Z,18.27
2017-03-26T12:58:47.655Z,18.2
2017-03-26T12:59:58.032Z,18.21
2017-03-26T13:01:08.394Z,18.16
2017-03-26T13:02:18.436Z,18.24
2017-03-26T13:03:28.803Z,18.27
2017-03-26T13:04:39.161Z,18.31
2017-03-26T13:05:49.537Z,18.27
2017-03-26T13:06:59.893Z,18.31
2017-03-26T13:08:10.255Z,18.32
2017-03-26T13:09:20.310Z,18.42
2017-03-26T13:10:30.362Z,18.39
2017-03-26T13:11:40.796Z,18.34
2017-03-26T13:12:51.162Z,18.34
2017-03-26T13:14:01.523Z,18.27
2017-03-26T13:15:11.580Z,18.27
2017-03-26T13:16:21.622Z,18.27
2017-03-26T13:17:31.659Z,18.26
2017-03-26T13:18:42.019Z,18.23
2017-03-26T13:19:52.379Z,18.16
2017-03-26T13:21:02.737Z,18.14
2017-03-26T13:22:12.773Z,18.2
2017-03-26T13:23:22.877Z,18.16
2017-03-26T13:24:33.251Z,18.14
2017-03-26T13:25:43.663Z,18.16
2017-03-26T13:26:54.027Z,18.17
2017-03-26T13:28:04.381Z,18.19
2017-03-26T13:29:14.741Z,18.03
2017-03-26T13:30:24.809Z,18.1
2017-03-26T13:31:35.099Z,18.05
2017-03-26T13:32:45.145Z,18.03
2017-03-26T13:33:55.172Z,18.03
2017-03-26T13:35:05.568Z,17.87
2017-03-26T13:36:15.934Z,17.94
2017-03-26T13:37:26.315Z,17.86
2017-03-26T13:38:36.696Z,17.87
2017-03-26T13:39:47.070Z,17.87
2017-03-26T13:40:57.414Z,17.81
2017-03-26T13:42:07.758Z,17.81
2017-03-26T13:43:18.120Z,17.87
2017-03-26T13:44:28.236Z,17.9
2017-03-26T13:45:38.618Z,17.98
2017-03-26T13:46:48.645Z,18.01
2017-03-26T13:47:58.986Z,18.01
2017-03-26T13:49:09.342Z,17.96
2017-03-26T13:50:19.703Z,18.01
2017-03-26T13:51:30.049Z,17.94
2017-03-26T13:52:40.409Z,18.02
2017-03-26T13:53:50.155Z,17.96
2017-03-26T13:55:00.563Z,17.87
2017-03-26T13:56:10.922Z,17.95
2017-03-26T13:57:21.292Z,17.86
2017-03-26T13:58:31.368Z,17.76
2017-03-26T13:59:41.773Z,17.79
2017-03-26T14:00:52.157Z,17.8
2017-03-26T14:02:02.539Z,17.79
2017-03-26T14:03:12.894Z,17.9
2017-03-26T14:04:23.274Z,17.81
2017-03-26T14:05:33.622Z,17.81
2017-03-26T14:06:43.983Z,17.81
2017-03-26T14:07:54.343Z,17.81
2017-03-26T14:09:04.691Z,17.9
2017-03-26T14:10:14.785Z,17.76
2017-03-26T14:11:25.137Z,17.77
2017-03-26T14:12:35.514Z,17.76
2017-03-26T14:13:45.929Z,17.66
2017-03-26T14:14:56.321Z,17.69
2017-03-26T14:16:06.055Z,17.73
2017-03-26T14:17:16.086Z,17.65
2017-03-26T14:18:26.124Z,17.63
2017-03-26T14:19:36.178Z,17.52
2017-03-26T14:20:46.585Z,17.52
2017-03-26T14:21:56.939Z,17.55
2017-03-26T14:23:06.982Z,17.43
2017-03-26T14:24:17.330Z,17.43
2017-03-26T14:25:27.662Z,17.4
2017-03-26T14:26:37.720Z,17.42
2017-03-26T14:27:48.107Z,17.42
2017-03-26T14:28:58.483Z,17.42
2017-03-26T14:30:08.537Z,17.42
2017-03-26T14:31:18.969Z,17.43
2017-03-26T14:32:29.264Z,17.39
2017-03-26T14:33:39.647Z,17.43
2017-03-26T14:34:49.668Z,17.4
2017-03-26T14:36:00.030Z,17.52
2017-03-26T14:37:10.407Z,17.55
2017-03-26T14:38:20.451Z,17.46
2017-03-26T14:39:30.524Z,17.47
2017-03-26T14:40:41.110Z,17.38
2017-03-26T14:41:51.492Z,17.4
2017-03-26T14:43:01.851Z,17.4
2017-03-26T14:44:11.912Z,17.4
2017-03-26T14:45:21.965Z,17.36
2017-03-26T14:46:31.991Z,17.35
2017-03-26T14:47:42.078Z,17.17
2017-03-26T14:48:52.456Z,17.21
2017-03-26T14:50:02.812Z,17.09
2017-03-26T14:51:12.842Z,17.05
2017-03-26T14:52:22.929Z,17.09
2017-03-26T14:53:32.998Z,17.03
2017-03-26T14:54:43.371Z,16.99
2017-03-26T14:55:53.652Z,17.03
2017-03-26T14:57:04.041Z,17.02
2017-03-26T14:58:14.392Z,16.87
2017-03-26T14:59:24.472Z,16.9
2017-03-26T15:00:34.832Z,16.9
2017-03-26T15:01:44.878Z,16.9
2017-03-26T15:02:57.516Z,16.84
2017-03-26T15:04:10.245Z,16.84
2017-03-26T15:05:20.310Z,16.84
2017-03-26T15:06:30.659Z,16.67
2017-03-26T15:07:40.703Z,16.67
2017-03-26T15:08:50.784Z,16.57
2017-03-26T15:10:01.204Z,16.57
2017-03-26T15:11:11.547Z,16.48
2017-03-26T15:12:21.881Z,16.44
2017-03-26T15:13:32.237Z,16.44
2017-03-26T15:14:42.637Z,16.44
2017-03-26T15:15:52.385Z,16.49
2017-03-26T15:17:02.745Z,16.37
2017-03-26T15:18:13.094Z,16.32
2017-03-26T15:19:23.472Z,16.44
2017-03-26T15:20:33.826Z,16.26
2017-03-26T15:21:44.211Z,16.3
2017-03-26T15:22:54.570Z,16.21
2017-03-26T15:24:04.949Z,16.17
2017-03-26T15:25:15.318Z,16.27
2017-03-26T15:26:25.669Z,16.29
2017-03-26T15:27:36.043Z,16.18
2017-03-26T15:28:46.096Z,16.18
2017-03-26T15:29:56.466Z,16.22
2017-03-26T15:31:06.513Z,16.11
2017-03-26T15:32:16.877Z,16.02
2017-03-26T15:33:26.935Z,16
2017-03-26T15:34:37.446Z,15.95
2017-03-26T15:35:47.802Z,15.99
2017-03-26T15:36:58.158Z,15.93
2017-03-26T15:38:07.884Z,16.04
2017-03-26T15:39:18.242Z,15.93
2017-03-26T15:40:28.630Z,15.95
2017-03-26T15:41:38.680Z,15.98